Time;durP1;ratioP1;P1;durP2;ratioP2;P2;SDS_P1;SDS_P2;PMS_P1;PMS_P2;Temp;Humidity;BMP_temperature;BMP_pressure;BME280_temperature;BME280_humidity;BME280_pressure;Samples;Min_cycle;Max_cycle;Signal;HPM_P1;HPM_P2
2020/12/23 00:01:18;;;;;;;0.20;0.20;;;;;;;3.26;100.00;99269.09;4879197;29;20180;-79
2020/12/23 00:04:20;;;;;;;0.10;0.10;;;;;;;3.27;100.00;99269.88;4879088;29;20101;-80
2020/12/23 00:07:23;;;;;;;0.10;0.10;;;;;;;3.29;100.00;99259.94;4879100;29;20044;-80
2020/12/23 00:10:26;;;;;;;3.30;0.63;;;;;;;3.32;100.00;99247.28;4867868;29;20177;-80
2020/12/23 00:13:29;;;;;;;0.40;0.40;;;;;;;3.34;100.00;99239.34;4878962;29;20402;-80
2020/12/23 00:16:32;;;;;;;0.85;0.55;;;;;;;3.34;100.00;99223.63;4879049;29;20047;-79
2020/12/23 00:19:35;;;;;;;0.52;0.52;;;;;;;3.36;100.00;99214.91;4869690;29;20052;-79
2020/12/23 00:22:38;;;;;;;0.77;0.47;;;;;;;3.36;100.00;99225.91;4878077;29;20097;-80
2020/12/23 00:25:41;;;;;;;0.10;0.10;;;;;;;3.35;100.00;99216.91;4879116;29;20113;-80
2020/12/23 00:28:44;;;;;;;0.10;0.10;;;;;;;3.37;100.00;99227.47;4879103;29;20112;-80
2020/12/23 00:31:51;;;;;;;0.10;0.10;;;;;;;3.40;100.00;99210.84;4878800;29;20081;-79
2020/12/23 00:34:54;;;;;;;0.10;0.10;;;;;;;3.44;100.00;99221.75;4878877;29;20056;-80
2020/12/23 00:37:57;;;;;;;0.10;0.10;;;;;;;3.44;100.00;99219.00;4878786;29;20100;-79
2020/12/23 00:41:00;;;;;;;0.10;0.10;;;;;;;3.47;100.00;99215.34;4878769;29;20532;-79
2020/12/23 00:44:02;;;;;;;0.10;0.10;;;;;;;3.47;100.00;99215.34;4878477;29;20056;-79
2020/12/23 00:47:05;;;;;;;0.10;0.10;;;;;;;3.46;100.00;99209.09;4878918;29;20129;-79
2020/12/23 00:50:08;;;;;;;0.10;0.10;;;;;;;3.46;100.00;99213.81;4878455;29;20414;-80
2020/12/23 00:53:11;;;;;;;0.30;0.30;;;;;;;3.45;100.00;99212.25;4878435;29;20132;-79
2020/12/23 00:56:14;;;;;;;0.10;0.10;;;;;;;3.44;100.00;99202.47;4878390;29;20059;-80
2020/12/23 00:59:16;;;;;;;0.10;0.10;;;;;;;3.42;100.00;99191.16;4878606;29;20044;-79
2020/12/23 01:02:19;;;;;;;0.30;0.30;;;;;;;3.41;100.00;99192.34;4878358;29;20052;-79
2020/12/23 01:05:22;;;;;;;2.55;0.35;;;;;;;3.42;100.00;99185.66;4878789;29;20136;-80
2020/12/23 01:08:25;;;;;;;0.10;0.10;;;;;;;3.42;100.00;99180.13;4880144;29;20048;-80
2020/12/23 01:11:28;;;;;;;0.10;0.10;;;;;;;3.43;100.00;99187.16;4881630;29;20040;-80
2020/12/23 01:14:30;;;;;;;0.10;0.10;;;;;;;3.45;100.00;99182.75;4882425;29;20056;-80
2020/12/23 01:17:33;;;;;;;0.10;0.10;;;;;;;3.47;100.00;99176.81;4881790;29;20197;-79
2020/12/23 01:20:36;;;;;;;0.10;0.10;;;;;;;3.49;100.00;99185.38;4868170;29;20574;-80
2020/12/23 01:23:41;;;;;;;0.10;0.10;;;;;;;3.51;100.00;99180.22;4881796;29;20048;-80
2020/12/23 01:26:44;;;;;;;0.90;0.40;;;;;;;3.53;100.00;99177.81;4863364;29;20060;-81
2020/12/23 01:29:47;;;;;;;0.30;0.30;;;;;;;3.51;100.00;99172.72;4862944;29;20044;-80
2020/12/23 01:32:50;;;;;;;0.10;0.10;;;;;;;3.49;100.00;99169.66;4863153;29;20075;-80
2020/12/23 01:35:52;;;;;;;0.10;0.10;;;;;;;3.50;100.00;99170.44;4863106;29;20534;-80
2020/12/23 01:38:55;;;;;;;0.10;0.10;;;;;;;3.52;100.00;99168.00;4862785;29;20102;-81
2020/12/23 01:41:58;;;;;;;0.10;0.10;;;;;;;3.50;100.00;99157.44;4862790;29;20044;-81
2020/12/23 01:45:03;;;;;;;0.10;0.10;;;;;;;3.49;100.00;99161.38;4863001;29;20065;-80
2020/12/23 01:48:17;;;;;;;0.10;0.00;;;;;;;3.49;100.00;99157.88;4851820;29;20088;-80
2020/12/23 01:51:20;;;;;;;0.10;0.10;;;;;;;3.50;100.00;99159.41;4863069;29;20048;-80
2020/12/23 01:54:22;;;;;;;0.10;0.10;;;;;;;3.51;100.00;99166.47;4851326;29;20551;-80
2020/12/23 01:57:26;;;;;;;0.40;0.20;;;;;;;3.48;100.00;99167.34;4851367;29;20172;-80
2020/12/23 02:00:28;;;;;;;0.20;0.20;;;;;;;3.48;100.00;99161.84;4862854;29;20081;-80
2020/12/23 02:03:31;;;;;;;0.10;0.10;;;;;;;3.44;100.00;99156.47;4862848;29;20076;-80
2020/12/23 02:06:34;;;;;;;0.10;0.00;;;;;;;3.45;100.00;99162.72;4862995;29;20571;-80
2020/12/23 02:09:37;;;;;;;0.25;0.25;;;;;;;3.44;100.00;99163.94;4851192;29;20109;-80
2020/12/23 02:12:41;;;;;;;0.10;0.10;;;;;;;3.42;100.00;99150.63;4862632;29;20581;-80
2020/12/23 02:15:44;;;;;;;0.20;0.20;;;;;;;3.43;100.00;99154.13;4862453;29;20063;-82
2020/12/23 02:18:47;;;;;;;0.13;0.13;;;;;;;3.42;100.00;99147.13;4862286;29;20047;-80
2020/12/23 02:21:50;;;;;;;0.20;0.20;;;;;;;3.41;100.00;99151.06;4862595;29;20048;-80
2020/12/23 02:24:52;;;;;;;0.10;0.10;;;;;;;3.41;100.00;99151.06;4850864;29;20068;-81
2020/12/23 02:27:55;;;;;;;0.20;0.20;;;;;;;3.42;100.00;99136.09;4862122;29;20045;-80
2020/12/23 02:31:03;;;;;;;1.75;0.63;;;;;;;3.41;100.00;99142.81;4862312;29;20044;-80
2020/12/23 02:34:06;;;;;;;0.10;0.10;;;;;;;3.41;100.00;99140.06;4850658;29;20064;-81
2020/12/23 02:37:10;;;;;;;0.10;0.10;;;;;;;3.42;100.00;99136.09;4862295;29;20113;-80
2020/12/23 02:40:13;;;;;;;0.10;0.10;;;;;;;3.40;100.00;99133.78;4862129;29;20056;-80
2020/12/23 02:43:16;;;;;;;0.60;0.20;;;;;;;3.39;100.00;99132.25;4862007;29;20097;-80
2020/12/23 02:46:19;;;;;;;0.10;0.10;;;;;;;3.39;100.00;99125.97;4861223;29;20527;-80
2020/12/23 02:49:23;;;;;;;0.10;0.10;;;;;;;3.39;100.00;99120.47;4862225;29;20060;-80
2020/12/23 02:52:26;;;;;;;0.10;0.10;;;;;;;3.37;100.00;99117.41;4861813;29;20049;-80
2020/12/23 02:55:29;;;;;;;0.10;0.10;;;;;;;3.37;100.00;99112.66;4861499;29;20455;-80
2020/12/23 02:58:31;;;;;;;0.10;0.10;;;;;;;3.38;100.00;99114.19;4861860;29;20451;-80
2020/12/23 03:01:35;;;;;;;0.10;0.10;;;;;;;3.37;100.00;99103.63;4861547;29;20069;-80
2020/12/23 03:04:38;;;;;;;1.42;0.32;;;;;;;3.36;100.00;99094.59;4861748;29;20053;-79
2020/12/23 03:07:41;;;;;;;0.10;0.10;;;;;;;3.36;100.00;99091.84;4861563;29;20052;-79
2020/12/23 03:10:44;;;;;;;0.10;0.10;;;;;;;3.35;100.00;99092.31;4861674;29;20061;-79
2020/12/23 03:13:46;;;;;;;0.10;0.10;;;;;;;3.35;100.00;99092.31;4869733;29;20052;-79
2020/12/23 03:16:49;;;;;;;0.10;0.10;;;;;;;3.35;100.00;99086.81;4879934;29;20068;-79
2020/12/23 03:19:52;;;;;;;0.10;0.10;;;;;;;3.33;100.00;99092.00;4868350;29;20658;-79
2020/12/23 03:22:55;;;;;;;0.10;0.10;;;;;;;3.30;100.00;99090.88;4879749;29;20101;-81
2020/12/23 03:25:58;;;;;;;0.10;0.10;;;;;;;3.30;100.00;99084.63;4879695;29;20056;-80
2020/12/23 03:29:00;;;;;;;0.10;0.10;;;;;;;3.30;100.00;99085.38;4879738;29;20055;-79
2020/12/23 03:32:04;;;;;;;0.30;0.20;;;;;;;3.30;100.00;99090.13;4879227;29;20116;-80
2020/12/23 03:35:06;;;;;;;0.10;0.00;;;;;;;3.29;100.00;99078.34;4879707;29;20052;-80
2020/12/23 03:38:09;;;;;;;0.10;0.10;;;;;;;3.27;100.00;99074.50;4879792;29;20070;-79
2020/12/23 03:41:12;;;;;;;0.10;0.10;;;;;;;3.27;100.00;99074.50;4879456;29;20056;-79
2020/12/23 03:44:15;;;;;;;0.10;0.10;;;;;;;3.25;100.00;99076.94;4879535;29;20196;-79
2020/12/23 03:47:18;;;;;;;0.13;0.05;;;;;;;3.26;100.00;99078.47;4879494;29;20092;-80
2020/12/23 03:50:21;;;;;;;0.10;0.10;;;;;;;3.26;100.00;99078.47;4867368;29;20104;-80
2020/12/23 03:53:23;;;;;;;0.10;0.10;;;;;;;3.22;100.00;99073.09;4879567;29;20517;-79
2020/12/23 03:56:26;;;;;;;0.10;0.10;;;;;;;3.25;100.00;99082.44;4867393;29;20064;-80
2020/12/23 03:59:29;;;;;;;0.10;0.10;;;;;;;3.23;100.00;99068.38;4867904;29;20048;-79
2020/12/23 04:02:32;;;;;;;0.10;0.10;;;;;;;3.22;100.00;99066.81;4879169;29;20053;-78
2020/12/23 04:05:36;;;;;;;0.10;0.10;;;;;;;3.20;100.00;99072.78;4878954;29;20518;-79
2020/12/23 04:08:41;;;;;;;0.10;0.10;;;;;;;3.20;100.00;99063.75;4879143;29;20455;-78
2020/12/23 04:11:43;;;;;;;0.10;0.10;;;;;;;3.19;100.00;99068.47;4879335;29;20055;-78
2020/12/23 04:14:46;;;;;;;0.10;0.10;;;;;;;3.17;100.00;99062.66;4867261;29;20112;-79
2020/12/23 04:17:50;;;;;;;0.10;0.10;;;;;;;3.19;100.00;99059.44;4867292;29;20140;-79
2020/12/23 04:20:53;;;;;;;0.10;0.10;;;;;;;3.18;100.00;99060.66;4878917;29;20052;-78
2020/12/23 04:23:56;;;;;;;0.20;0.20;;;;;;;3.18;100.00;99063.41;4867570;29;20129;-78
2020/12/23 04:26:59;;;;;;;0.10;0.10;;;;;;;3.18;100.00;99063.41;4867366;29;20047;-78
2020/12/23 04:30:06;;;;;;;0.10;0.10;;;;;;;3.18;100.00;99049.66;4878728;29;20657;-77
2020/12/23 04:33:09;;;;;;;0.10;0.00;;;;;;;3.19;100.00;99043.72;4878850;29;20105;-79
2020/12/23 04:36:12;;;;;;;0.10;0.10;;;;;;;3.18;100.00;99038.66;4878521;29;20069;-79
2020/12/23 04:39:14;;;;;;;0.10;0.10;;;;;;;3.20;100.00;99038.97;4878717;29;20052;-80
2020/12/23 04:42:17;;;;;;;0.10;0.10;;;;;;;3.19;100.00;99029.97;4878027;29;20065;-79
2020/12/23 04:45:21;;;;;;;0.10;0.10;;;;;;;3.18;100.00;99033.94;4867346;29;20095;-79
2020/12/23 04:48:25;;;;;;;0.10;0.10;;;;;;;3.19;100.00;99018.19;4878653;29;20525;-79
2020/12/23 04:51:34;;;;;;;0.10;0.10;;;;;;;3.21;100.00;99018.50;4878431;29;20068;-80
2020/12/23 04:54:37;;;;;;;0.10;0.10;;;;;;;3.21;100.00;99021.25;4867038;29;20175;-79
2020/12/23 04:57:40;;;;;;;0.10;0.10;;;;;;;3.20;100.00;99009.50;4878468;29;20083;-79
2020/12/23 05:00:43;;;;;;;0.10;0.00;;;;;;;3.22;100.00;99022.81;4867061;29;20047;-79
2020/12/23 05:03:46;;;;;;;0.10;0.10;;;;;;;3.23;100.00;99018.84;4866934;29;20622;-80
2020/12/23 05:07:00;;;;;;;0.10;0.10;;;;;;;3.23;100.00;99005.09;4878433;29;20096;-79
2020/12/23 05:10:06;;;;;;;0.20;0.20;;;;;;;3.21;100.00;99002.00;4878161;29;20459;-79
2020/12/23 05:13:11;;;;;;;0.10;0.10;;;;;;;3.21;100.00;99002.00;4878431;29;20051;-79
2020/12/23 05:16:23;;;;;;;0.10;0.10;;;;;;;3.22;100.00;99006.28;4878239;29;20056;-80
2020/12/23 05:19:27;;;;;;;0.32;0.32;;;;;;;3.23;100.00;98999.59;4878128;29;20124;-80
2020/12/23 05:22:30;;;;;;;0.10;0.10;;;;;;;3.25;100.00;98994.41;4878327;29;20052;-79
2020/12/23 05:25:34;;;;;;;0.10;0.10;;;;;;;3.25;100.00;98994.41;4878287;29;20100;-79
2020/12/23 05:28:37;;;;;;;0.10;0.10;;;;;;;3.26;100.00;98993.19;4877674;29;20136;-79
2020/12/23 05:31:43;;;;;;;0.10;0.10;;;;;;;3.27;100.00;98994.72;4877463;29;20068;-79
2020/12/23 05:34:48;;;;;;;0.10;0.10;;;;;;;3.26;100.00;98988.44;4878261;29;20113;-79
2020/12/23 05:37:51;;;;;;;0.10;0.10;;;;;;;3.26;100.00;98982.16;4878348;29;20136;-80
2020/12/23 05:40:54;;;;;;;0.10;0.10;;;;;;;3.28;100.00;98982.50;4877609;29;20105;-80
2020/12/23 05:43:56;;;;;;;0.10;0.10;;;;;;;3.30;100.00;98980.06;4878179;29;20132;-79
2020/12/23 05:46:59;;;;;;;0.10;0.10;;;;;;;3.29;100.00;98970.28;4878483;29;20056;-80
2020/12/23 05:50:08;;;;;;;0.10;0.10;;;;;;;3.30;100.00;98980.06;4877887;29;20171;-79
2020/12/23 05:53:13;;;;;;;0.10;0.10;;;;;;;3.33;100.00;98965.41;4878118;29;20092;-80
2020/12/23 05:56:16;;;;;;;0.10;0.00;;;;;;;3.34;100.00;98969.69;4881166;29;20571;-79
2020/12/23 05:59:19;;;;;;;0.30;0.17;;;;;;;3.38;100.00;98970.34;4880903;29;20044;-79
2020/12/23 06:02:27;;;;;;;0.10;0.10;;;;;;;3.39;100.00;98955.38;4880793;29;20609;-80
2020/12/23 06:05:33;;;;;;;0.10;0.10;;;;;;;3.40;100.00;98965.91;4880424;29;20112;-79
2020/12/23 06:08:37;;;;;;;0.10;0.10;;;;;;;3.40;100.00;98951.41;4881373;29;20051;-79
2020/12/23 06:11:50;;;;;;;0.10;0.00;;;;;;;3.40;100.00;98954.16;4881247;29;20051;-80
2020/12/23 06:14:58;;;;;;;0.75;0.52;;;;;;;3.40;100.00;98954.91;4880830;29;20096;-79
2020/12/23 06:18:02;;;;;;;0.10;0.10;;;;;;;3.40;100.00;98946.66;4881073;29;20056;-80
2020/12/23 06:21:06;;;;;;;0.10;0.10;;;;;;;3.41;100.00;98939.16;4881234;29;20079;-79
2020/12/23 06:24:11;;;;;;;0.10;0.10;;;;;;;3.41;100.00;98928.16;4881273;29;20052;-80
2020/12/23 06:27:15;;;;;;;0.10;0.10;;;;;;;3.41;100.00;98931.69;4881104;29;20061;-80
2020/12/23 06:30:19;;;;;;;0.10;0.10;;;;;;;3.43;100.00;98931.22;4880828;29;20717;-80
2020/12/23 06:33:22;;;;;;;0.43;0.43;;;;;;;3.45;100.00;98931.53;4880744;29;20109;-79
2020/12/23 06:36:30;;;;;;;0.10;0.10;;;;;;;3.45;100.00;98932.31;4880580;29;20087;-80
2020/12/23 06:39:38;;;;;;;0.10;0.10;;;;;;;3.46;100.00;98914.59;4880666;29;20101;-80
2020/12/23 06:42:46;;;;;;;0.10;0.10;;;;;;;3.47;100.00;98918.09;4880499;29;20067;-80
2020/12/23 06:45:53;;;;;;;0.15;0.15;;;;;;;3.46;100.00;98909.09;4880479;29;20055;-80
2020/12/23 06:49:15;;;;;;;0.10;0.10;;;;;;;3.50;100.00;98904.22;4880828;29;20083;-79
2020/12/23 06:52:21;;;;;;;0.10;0.10;;;;;;;3.49;100.00;98910.16;4880522;29;20047;-81
2020/12/23 06:55:53;;;;;;;0.10;0.00;;;;;;;3.50;100.00;98900.69;4880031;29;20093;-80
2020/12/23 06:58:56;;;;;;;0.10;0.00;;;;;;;3.50;100.00;98906.19;4860941;29;20518;-81
2020/12/23 07:02:05;;;;;;;0.10;0.10;;;;;;;3.52;100.00;98901.00;4868380;29;20052;-81
2020/12/23 07:05:13;;;;;;;0.10;0.10;;;;;;;3.51;100.00;98885.72;4879907;29;20056;-82
2020/12/23 07:08:17;;;;;;;0.10;0.10;;;;;;;3.52;100.00;98865.22;4880235;29;20067;-81
2020/12/23 07:11:22;;;;;;;0.10;0.10;;;;;;;3.54;100.00;98871.03;4880149;29;20100;-81
2020/12/23 07:14:24;;;;;;;0.10;0.00;;;;;;;3.52;100.00;98871.50;4880040;29;20574;-81
2020/12/23 07:17:28;;;;;;;0.10;0.10;;;;;;;3.49;100.00;98868.88;4878996;29;20052;-81
2020/12/23 07:20:40;;;;;;;0.10;0.10;;;;;;;3.48;100.00;98875.59;4879910;29;20117;-81
2020/12/23 07:23:44;;;;;;;;;;;;;;;3.49;100.00;98866.13;4880537;29;20051;-81
2020/12/23 07:26:46;;;;;;;0.10;0.10;;;;;;;3.48;100.00;98850.84;4879774;29;19964;-81
2020/12/23 07:29:55;;;;;;;0.10;0.00;;;;;;;3.47;100.00;98863.84;4878949;29;20402;-81
2020/12/23 07:33:12;;;;;;;0.10;0.10;;;;;;;3.50;100.00;98862.94;4879796;29;20043;-80
2020/12/23 07:36:16;;;;;;;0.10;0.10;;;;;;;3.53;100.00;98866.78;4879723;29;20048;-80
2020/12/23 07:39:19;;;;;;;0.10;0.10;;;;;;;3.55;100.00;98872.59;4880004;29;20067;-80
2020/12/23 07:42:21;;;;;;;0.00;0.00;;;;;;;3.57;100.00;98878.41;4879750;29;20048;-80
2020/12/23 07:45:26;;;;;;;0.10;0.10;;;;;;;3.58;100.00;98885.44;4879951;29;20055;-81
2020/12/23 07:48:30;;;;;;;0.10;0.10;;;;;;;3.59;100.00;98887.75;4879859;29;20067;-80
2020/12/23 07:51:37;;;;;;;0.10;0.10;;;;;;;3.59;100.00;98870.47;4879509;29;20051;-79
2020/12/23 07:54:40;;;;;;;0.10;0.10;;;;;;;3.62;100.00;98869.53;4878953;29;20048;-81
2020/12/23 07:57:43;;;;;;;0.10;0.10;;;;;;;3.60;100.00;98864.50;4878671;29;20059;-81
2020/12/23 08:00:46;;;;;;;0.10;0.10;;;;;;;3.61;100.00;98868.03;4879147;29;20089;-79
2020/12/23 08:03:49;;;;;;;0.10;0.10;;;;;;;3.62;100.00;98858.53;4878863;29;20083;-80
2020/12/23 08:06:53;;;;;;;0.10;0.10;;;;;;;3.61;100.00;98868.81;4877995;29;20410;-80
2020/12/23 08:10:15;;;;;;;0.10;0.10;;;;;;;3.61;100.00;98870.78;4878164;29;20056;-81
2020/12/23 08:13:27;;;;;;;0.10;0.00;;;;;;;3.62;100.00;98864.03;4878981;29;20044;-80
2020/12/23 08:16:31;;;;;;;0.10;0.10;;;;;;;3.61;100.00;98860.53;4879059;29;20083;-80
2020/12/23 08:19:34;;;;;;;0.10;0.10;;;;;;;3.64;100.00;98865.13;4878080;29;20140;-79
2020/12/23 08:22:46;;;;;;;0.10;0.00;;;;;;;3.69;100.00;98863.78;4878775;29;20052;-79
2020/12/23 08:25:49;;;;;;;0.10;0.10;;;;;;;3.69;100.00;98839.00;4879162;29;20581;-80
2020/12/23 08:28:52;;;;;;;0.10;0.10;;;;;;;3.71;100.00;98850.31;4879256;29;20047;-80
2020/12/23 08:32:00;;;;;;;0.10;0.00;;;;;;;3.72;100.00;98846.34;4878727;29;20093;-80
2020/12/23 08:35:05;;;;;;;0.10;0.10;;;;;;;3.74;100.00;98841.94;4878731;29;20060;-80
2020/12/23 08:38:21;;;;;;;0.10;0.10;;;;;;;3.77;100.00;98848.50;4878670;29;20056;-80
2020/12/23 08:41:26;;;;;;;0.10;0.10;;;;;;;3.77;100.00;98843.75;4878654;29;20072;-80
2020/12/23 08:44:30;;;;;;;0.10;0.10;;;;;;;3.79;100.00;98832.28;4878769;29;20525;-79
2020/12/23 08:47:33;;;;;;;0.10;0.10;;;;;;;3.79;100.00;98840.53;4878953;29;20048;-79
2020/12/23 08:50:36;;;;;;;0.10;0.10;;;;;;;3.83;100.00;98841.19;4878729;29;20486;-80
2020/12/23 08:53:39;;;;;;;0.20;0.20;;;;;;;3.85;100.00;98844.25;4877805;29;20066;-80
2020/12/23 08:56:47;;;;;;;0.10;0.10;;;;;;;3.86;100.00;98840.25;4876810;29;20105;-80
2020/12/23 08:59:50;;;;;;;0.10;0.00;;;;;;;3.87;100.00;98832.78;4878378;29;20624;-80
2020/12/23 09:02:53;;;;;;;0.10;0.10;;;;;;;3.87;100.00;98830.81;4878414;29;20124;-80
2020/12/23 09:05:59;;;;;;;0.75;0.30;;;;;;;3.88;100.00;98828.81;4878406;29;20075;-77
2020/12/23 09:09:05;;;;;;;0.10;0.10;;;;;;;3.88;100.00;98837.81;4878433;29;20088;-79
2020/12/23 09:12:18;;;;;;;0.10;0.10;;;;;;;3.88;100.00;98826.81;4878390;29;20102;-80
2020/12/23 09:15:21;;;;;;;0.10;0.10;;;;;;;3.91;100.00;98823.16;4859849;29;20056;-81
2020/12/23 09:18:25;;;;;;;0.10;0.10;;;;;;;3.94;100.00;98818.72;4859795;29;20530;-80
2020/12/23 09:21:28;;;;;;;0.10;0.10;;;;;;;3.97;100.00;98821.31;4859514;29;20084;-80
2020/12/23 09:24:31;;;;;;;0.10;0.10;;;;;;;3.99;100.00;98807.09;4859786;29;20101;-80
2020/12/23 09:27:34;;;;;;;0.10;0.10;;;;;;;4.00;100.00;98817.66;4859472;29;20101;-80
2020/12/23 09:30:42;;;;;;;0.10;0.08;;;;;;;4.07;100.00;98813.84;4862974;29;20133;-80
2020/12/23 09:33:46;;;;;;;0.10;0.10;;;;;;;4.09;100.00;98814.94;4863247;29;20043;-80
2020/12/23 09:36:56;;;;;;;0.10;0.10;;;;;;;4.13;100.00;98820.28;4863187;29;20138;-81
2020/12/23 09:39:58;;;;;;;0.10;0.10;;;;;;;4.14;100.00;98819.81;4863211;29;20055;-80
2020/12/23 09:43:02;;;;;;;0.10;0.10;;;;;;;4.20;100.00;98811.72;4862145;29;20068;-81
2020/12/23 09:46:08;;;;;;;0.10;0.00;;;;;;;4.20;100.00;98795.19;4863320;29;20422;-80
2020/12/23 09:49:11;;;;;;;0.10;0.10;;;;;;;4.22;100.00;98801.75;4863386;29;20105;-81
2020/12/23 09:52:13;;;;;;;0.20;0.20;;;;;;;4.21;100.00;98800.25;4851511;29;20053;-81
2020/12/23 09:55:16;;;;;;;0.10;0.10;;;;;;;4.24;100.00;98787.53;4862932;29;20514;-80
2020/12/23 09:58:19;;;;;;;0.10;0.00;;;;;;;4.26;100.00;98796.88;4862847;29;20052;-79
2020/12/23 10:01:22;;;;;;;0.10;0.10;;;;;;;4.30;100.00;98791.22;4851730;29;20537;-78
2020/12/23 10:04:25;;;;;;;0.10;0.10;;;;;;;4.36;100.00;98790.16;4863153;29;20078;-80
2020/12/23 10:07:28;;;;;;;0.10;0.10;;;;;;;4.42;100.00;98779.25;4863639;29;20070;-79
2020/12/23 10:10:30;;;;;;;0.10;0.10;;;;;;;4.47;100.00;98773.91;4852516;29;20057;-81
2020/12/23 10:13:34;;;;;;;0.10;0.00;;;;;;;4.50;100.00;98789.50;4868857;29;20045;-80
2020/12/23 10:16:37;;;;;;;0.10;0.00;;;;;;;4.53;100.00;98788.59;4880999;29;20096;-80
2020/12/23 10:19:39;;;;;;;0.10;0.10;;;;;;;4.56;100.00;98790.44;4880743;29;20067;-81
2020/12/23 10:22:42;;;;;;;0.10;0.10;;;;;;;4.58;100.00;98779.72;4880542;29;20083;-82
2020/12/23 10:25:45;;;;;;;0.10;0.10;;;;;;;4.59;100.00;98797.03;4880737;29;20059;-81
2020/12/23 10:28:48;;;;;;;0.10;0.10;;;;;;;4.62;100.00;98779.56;4880029;29;20056;-81
2020/12/23 10:31:50;;;;;;;0.10;0.00;;;;;;;4.61;100.00;98773.28;4868836;29;20055;-82
2020/12/23 10:34:53;;;;;;;0.10;0.10;;;;;;;4.61;100.00;98781.53;4868979;29;20044;-82
2020/12/23 10:37:56;;;;;;;0.40;0.40;;;;;;;4.61;100.00;98772.53;4867776;29;20077;-83
2020/12/23 10:40:59;;;;;;;0.10;0.00;;;;;;;4.61;100.00;98756.72;4867910;29;20073;-81
2020/12/23 10:44:02;;;;;;;0.10;0.10;;;;;;;4.61;100.00;98767.00;4868851;29;20173;-83
2020/12/23 10:47:05;;;;;;;0.10;0.00;;;;;;;4.58;100.00;98760.44;4868788;29;20517;-81
2020/12/23 10:50:08;;;;;;;0.10;0.10;;;;;;;4.60;100.00;98746.94;4868076;29;20079;-81
2020/12/23 10:53:11;;;;;;;0.10;0.10;;;;;;;4.60;100.00;98763.50;4879842;29;20088;-81
2020/12/23 10:56:14;;;;;;;0.10;0.10;;;;;;;4.61;100.00;98756.72;4868407;29;20117;-81
2020/12/23 10:59:17;;;;;;;0.05;0.00;;;;;;;4.63;100.00;98762.53;4879803;29;20055;-81
2020/12/23 11:02:20;;;;;;;0.10;0.10;;;;;;;4.68;100.00;98746.63;4880000;29;20102;-81
2020/12/23 11:05:23;;;;;;;0.10;0.03;;;;;;;4.72;100.00;98733.44;4880279;29;20410;-82
2020/12/23 11:08:26;;;;;;;0.10;0.00;;;;;;;4.73;100.00;98732.97;4880107;29;20108;-84
2020/12/23 11:11:30;;;;;;;0.10;0.10;;;;;;;4.73;100.00;98730.22;4868734;29;20056;-83
2020/12/23 11:14:33;;;;;;;0.10;0.10;;;;;;;4.75;100.00;98724.22;4875062;29;20407;-88
2020/12/23 11:17:36;;;;;;;0.10;0.10;;;;;;;4.78;100.00;98715.03;4879880;29;20071;-84
2020/12/23 11:20:39;;;;;;;0.00;0.00;;;;;;;4.83;100.00;98722.69;4880689;29;20092;-86
2020/12/23 11:23:42;;;;;;;0.10;0.00;;;;;;;4.88;100.00;98709.03;4879409;29;20641;-86
2020/12/23 11:26:47;;;;;;;0.00;0.00;;;;;;;4.94;100.00;98714.66;4879737;29;20418;-86
2020/12/23 11:29:51;;;;;;;0.00;0.00;;;;;;;5.00;100.00;98707.31;4879932;29;20048;-86
2020/12/23 11:32:53;;;;;;;0.10;0.00;;;;;;;5.03;100.00;98722.91;4879995;29;20048;-86
2020/12/23 11:35:56;;;;;;;0.35;0.35;;;;;;;5.06;100.00;98713.72;4879455;29;20052;-86
2020/12/23 11:38:59;;;;;;;0.10;0.00;;;;;;;5.09;100.00;98701.75;4880159;29;20051;-86
2020/12/23 11:42:03;;;;;;;0.00;0.00;;;;;;;5.12;100.00;98695.28;4878741;29;20049;-84
2020/12/23 11:45:06;;;;;;;0.10;0.00;;;;;;;5.14;100.00;98699.13;4879596;29;20574;-83
2020/12/23 11:48:08;;;;;;;0.10;0.10;;;;;;;5.17;100.00;98689.91;4878556;29;20056;-84
2020/12/23 11:51:11;;;;;;;0.10;0.05;;;;;;;5.16;100.00;98688.38;4878384;29;20127;-83
2020/12/23 11:54:14;;;;;;;0.10;0.00;;;;;;;5.18;100.00;98679.63;4879472;29;20036;-85
2020/12/23 11:57:17;;;;;;;0.10;0.00;;;;;;;5.19;100.00;98670.13;4879385;29;20148;-84
2020/12/23 12:00:21;;;;;;;0.10;0.10;;;;;;;5.18;100.00;98676.84;4879556;29;20056;-84
2020/12/23 12:03:24;;;;;;;0.10;0.00;;;;;;;5.17;100.00;98669.81;4879216;29;20059;-86
2020/12/23 12:06:27;;;;;;;0.10;0.00;;;;;;;5.13;100.00;98660.97;4879652;29;20064;-81
2020/12/23 12:09:31;;;;;;;0.10;0.00;;;;;;;5.13;100.00;98669.97;4879426;29;20048;-88
2020/12/23 12:12:35;;;;;;;0.00;0.00;;;;;;;5.12;100.00;98662.94;4879512;29;20060;-88
2020/12/23 12:15:38;;;;;;;0.10;0.00;;;;;;;5.10;100.00;98673.69;4880065;29;20067;-87
2020/12/23 12:18:41;;;;;;;0.10;0.10;;;;;;;5.08;100.00;98656.06;4880296;29;20109;-87
2020/12/23 12:21:43;;;;;;;0.10;0.10;;;;;;;5.09;100.00;98657.63;4878528;29;20060;-88
2020/12/23 12:24:46;;;;;;;0.10;0.00;;;;;;;5.08;100.00;98650.56;4879676;29;20079;-90
2020/12/23 12:27:49;;;;;;;0.10;0.10;;;;;;;5.16;100.00;98662.78;4878996;29;20100;-83
2020/12/23 12:30:52;;;;;;;0.10;0.00;;;;;;;5.18;100.00;98654.78;4879508;29;20101;-81
2020/12/23 12:33:55;;;;;;;0.10;0.10;;;;;;;5.14;100.00;98648.69;4878750;29;20052;-85
2020/12/23 12:36:59;;;;;;;0.10;0.00;;;;;;;5.10;100.00;98653.59;4878569;29;20061;-85
2020/12/23 12:40:01;;;;;;;0.10;0.00;;;;;;;5.10;100.00;98648.09;4878280;29;20701;-84
2020/12/23 12:43:05;;;;;;;0.43;0.20;;;;;;;5.09;100.00;98646.56;4878648;29;20079;-84
2020/12/23 12:46:09;;;;;;;0.10;0.00;;;;;;;5.08;100.00;98640.28;4878723;29;20140;-86
2020/12/23 12:49:11;;;;;;;0.10;0.00;;;;;;;5.08;100.00;98628.47;4879364;29;20434;-87
2020/12/23 12:52:14;;;;;;;0.10;0.00;;;;;;;5.05;100.00;98621.13;4867950;29;20444;-84
2020/12/23 12:55:17;;;;;;;0.08;0.08;;;;;;;5.06;100.00;98625.44;4879956;29;20451;-83
2020/12/23 12:58:20;;;;;;;0.10;0.00;;;;;;;5.03;100.00;98623.59;4879026;29;20055;-85
2020/12/23 13:01:32;;;;;;;0.10;0.10;;;;;;;5.02;100.00;98616.56;4879071;29;20066;-84
2020/12/23 13:04:35;;;;;;;0.10;0.10;;;;;;;5.03;100.00;98618.06;4869666;29;20052;-84
2020/12/23 13:07:38;;;;;;;0.10;0.10;;;;;;;5.03;100.00;98615.31;4871148;29;20139;-85
2020/12/23 13:10:41;;;;;;;0.10;0.10;;;;;;;5.02;100.00;98613.81;4871219;29;20064;-84
2020/12/23 13:13:44;;;;;;;0.10;0.10;;;;;;;5.00;100.00;98616.28;4882055;29;20048;-84
2020/12/23 13:16:46;;;;;;;0.10;0.10;;;;;;;4.98;100.00;98624.25;4870760;29;20101;-84
2020/12/23 13:19:50;;;;;;;0.10;0.10;;;;;;;4.96;100.00;98618.44;4871279;29;20120;-85
2020/12/23 13:22:53;;;;;;;0.10;0.00;;;;;;;4.94;100.00;98612.59;4871301;29;20048;-87
2020/12/23 13:25:56;;;;;;;0.10;0.10;;;;;;;4.93;100.00;98611.09;4870993;29;20077;-85
2020/12/23 13:28:59;;;;;;;0.10;0.10;;;;;;;4.92;100.00;98598.50;4882474;29;20051;-83
2020/12/23 13:32:02;;;;;;;0.10;0.10;;;;;;;4.90;100.00;98603.75;4870662;29;20089;-80
2020/12/23 13:35:06;;;;;;;0.10;0.10;;;;;;;4.87;100.00;98610.22;4881906;29;20517;-81
2020/12/23 13:38:08;;;;;;;0.10;0.00;;;;;;;4.84;100.00;98608.38;4882058;29;20442;-82
2020/12/23 13:41:12;;;;;;;0.10;0.10;;;;;;;4.84;100.00;98597.34;4882402;29;20060;-81
2020/12/23 13:44:15;;;;;;;0.10;0.10;;;;;;;4.80;100.00;98591.22;4883068;29;20512;-81
2020/12/23 13:47:18;;;;;;;0.10;0.10;;;;;;;4.81;100.00;98599.03;4882093;29;20051;-80
2020/12/23 13:50:20;;;;;;;0.00;0.00;;;;;;;4.80;100.00;98613.28;4881695;29;20060;-80
2020/12/23 13:53:23;;;;;;;0.10;0.10;;;;;;;4.79;100.00;98597.97;4882026;29;20052;-80
2020/12/23 13:56:26;;;;;;;0.10;0.10;;;;;;;4.79;100.00;98589.69;4881563;29;20069;-80
2020/12/23 13:59:29;;;;;;;0.10;0.10;;;;;;;4.78;100.00;98593.69;4881574;29;20093;-79
2020/12/23 14:02:32;;;;;;;0.10;0.00;;;;;;;4.78;100.00;98604.72;4881487;29;20077;-80
2020/12/23 14:05:35;;;;;;;0.10;0.00;;;;;;;4.79;100.00;98611.75;4881621;29;20517;-78
2020/12/23 14:08:40;;;;;;;0.10;0.10;;;;;;;4.79;100.00;98603.47;4882028;29;20536;-80
2020/12/23 14:11:43;;;;;;;0.10;0.10;;;;;;;4.79;100.00;98612.53;4881389;29;20422;-80
2020/12/23 14:14:46;;;;;;;0.10;0.10;;;;;;;4.82;100.00;98621.88;4881064;29;20071;-79
2020/12/23 14:17:49;;;;;;;0.05;0.00;;;;;;;4.82;100.00;98616.34;4882369;29;20108;-82
2020/12/23 14:20:52;;;;;;;0.10;0.10;;;;;;;4.82;100.00;98611.59;4888530;29;20084;-82
2020/12/23 14:23:55;;;;;;;0.10;0.10;;;;;;;4.81;100.00;98618.34;4888072;29;20056;-82
2020/12/23 14:26:58;;;;;;;0.10;0.00;;;;;;;4.81;100.00;98625.88;4885027;29;20084;-84